Time;durP1;ratioP1;P1;durP2;ratioP2;P2;SDS_P1;SDS_P2;PMS_P1;PMS_P2;Temp;Humidity;BMP_temperature;BMP_pressure;BME280_temperature;BME280_humidity;BME280_pressure;Samples;Min_cycle;Max_cycle;Signal;HPM_P1;HPM_P2
2023/01/25 00:02:58;;;;;;;;;;;;;;;;;;;;;
2023/01/25 00:09:13;;;;;;;;;;;;;;;;;;;;;
2023/01/25 00:45:18;;;;;;;43.60;16.90;;;;;;;;;;103870;1294;545072;-90
2023/01/25 00:48:09;;;;;;;40.80;16.80;;;;;;;;;;106897;1278;24202;-84
2023/01/25 00:51:38;;;;;;;41.60;16.50;;;;;;;;;;106885;1266;22554;-84
2023/01/25 00:54:23;;;;;;;40.40;15.40;;;;;;;;;;106906;1260;24259;-85
2023/01/25 00:57:16;;;;;;;38.50;15.10;;;;;;;;;;106891;1278;22536;-89
2023/01/25 00:59:53;;;;;;;38.00;14.40;;;;;;;;;;103035;1275;24302;-85
2023/01/25 01:09:47;;;;;;;31.60;11.40;;;;;;;;;;106632;1260;22544;-87
2023/01/25 01:12:51;;;;;;;28.10;11.60;;;;;;;;;;106524;1281;22497;-89
2023/01/25 01:15:29;;;;;;;26.80;10.60;;;;;;;;;;106621;1281;22536;-90
2023/01/25 01:18:15;;;;;;;28.70;10.70;;;;;;;;;;106663;1270;24382;-87
2023/01/25 01:21:28;;;;;;;26.00;10.20;;;;;;;;;;106683;1281;22545;-84
2023/01/25 01:24:40;;;;;;;27.80;10.60;;;;;;;;;;106415;1283;24355;-89
2023/01/25 01:27:47;;;;;;;;;;;;;;;;;;;;;
2023/01/25 01:30:58;;;;;;;24.00;10.10;;;;;;;;;;106504;1283;25367;-87
2023/01/25 01:33:58;;;;;;;23.60;9.30;;;;;;;;;;106500;1283;25328;-87
2023/01/25 01:36:42;;;;;;;;;;;;;;;;;;;;;
2023/01/25 01:39:56;;;;;;;22.70;8.60;;;;;;;;;;107153;1275;24253;-88
2023/01/25 01:43:34;;;;;;;;;;;;;;;;;;;;;
2023/01/25 01:46:46;;;;;;;;;;;;;;;;;;;;;
2023/01/25 01:49:52;;;;;;;;;;;;;;;;;;;;;
2023/01/25 01:52:46;;;;;;;15.40;6.00;;;;;;;;;;106409;1285;22597;-86
2023/01/25 01:55:20;;;;;;;14.60;5.60;;;;;;;;;;106229;1286;22557;-88
2023/01/25 01:58:23;;;;;;;14.40;6.30;;;;;;;;;;106475;1262;25470;-88
2023/01/25 02:01:18;;;;;;;15.20;6.10;;;;;;;;;;106446;1284;22551;-91
2023/01/25 02:03:55;;;;;;;18.70;6.50;;;;;;;;;;106541;1285;23892;-88
2023/01/25 02:07:10;;;;;;;15.20;5.90;;;;;;;;;;106414;1269;25605;-86
2023/01/25 02:10:51;;;;;;;14.80;7.30;;;;;;;;;;105978;1291;22564;-84
2023/01/25 02:13:48;;;;;;;17.80;6.60;;;;;;;;;;105980;1291;24960;-85
2023/01/25 02:17:26;;;;;;;;;;;;;;;;;;;;;
2023/01/25 02:21:09;;;;;;;;;;;;;;;;;;;;;
2023/01/25 02:24:17;;;;;;;17.80;7.00;;;;;;;;;;106197;1288;22587;-84
2023/01/25 02:27:11;;;;;;;;;;;;;;;;;;;;;
2023/01/25 02:33:17;;;;;;;16.10;6.80;;;;;;;;;;105926;1292;25300;-86
2023/01/25 02:36:10;;;;;;;15.70;6.00;;;;;;;;;;105900;1292;24281;-89
2023/01/25 02:40:07;;;;;;;15.30;6.50;;;;;;;;;;105815;1292;25615;-83
2023/01/25 02:42:32;;;;;;;18.30;6.80;;;;;;;;;;105780;1292;22575;-87
2023/01/25 02:48:30;;;;;;;23.20;9.10;;;;;;;;;;105700;1274;22563;-85
2023/01/25 02:51:28;;;;;;;19.80;8.60;;;;;;;;;;105452;1273;24310;-83
2023/01/25 02:54:24;;;;;;;;;;;;;;;;;;;;;
2023/01/25 02:57:43;;;;;;;14.10;6.50;;;;;;;;;;105730;1261;22623;-86
2023/01/25 03:00:25;;;;;;;13.50;5.80;;;;;;;;;;106461;1284;24241;-85
2023/01/25 03:03:21;;;;;;;14.00;6.60;;;;;;;;;;106451;1284;25416;-87
2023/01/25 03:07:11;;;;;;;13.80;5.90;;;;;;;;;;106463;1284;24271;-85
2023/01/25 03:10:27;;;;;;;13.20;5.80;;;;;;;;;;106109;1270;25380;-85
2023/01/25 03:13:22;;;;;;;14.20;6.30;;;;;;;;;;106146;1288;22545;-84
2023/01/25 03:16:36;;;;;;;16.70;6.80;;;;;;;;;;106083;1288;24449;-84
2023/01/25 03:19:32;;;;;;;13.90;5.90;;;;;;;;;;106030;1273;22627;-83
2023/01/25 03:23:28;;;;;;;14.70;7.30;;;;;;;;;;106018;1290;22620;-88
2023/01/25 03:27:23;;;;;;;15.30;6.40;;;;;;;;;;105819;1289;22572;-85
2023/01/25 03:30:00;;;;;;;12.50;5.30;;;;;;;;;;105670;1274;22729;-87
2023/01/25 03:33:11;;;;;;;;;;;;;;;;;;;;;
2023/01/25 03:36:47;;;;;;;16.00;6.80;;;;;;;;;;105770;1293;25306;-86
2023/01/25 03:40:15;;;;;;;15.20;6.90;;;;;;;;;;105794;1276;25332;-83
2023/01/25 03:43:35;;;;;;;14.40;6.70;;;;;;;;;;105797;1294;25407;-83
2023/01/25 03:46:33;;;;;;;;;;;;;;;;;;;;;
2023/01/25 03:49:11;;;;;;;14.60;6.40;;;;;;;;;;109646;1269;22683;-82
2023/01/25 03:51:56;;;;;;;12.50;6.00;;;;;;;;;;109718;1288;22397;-81
2023/01/25 03:55:01;;;;;;;;;;;;;;;;;;;;;
2023/01/25 03:57:38;;;;;;;15.10;6.30;;;;;;;;;;109698;1288;22200;-82
2023/01/25 04:00:18;;;;;;;;;;;;;;;;;;;;;
2023/01/25 04:03:12;;;;;;;;;;;;;;;;;;;;;
2023/01/25 04:06:03;;;;;;;20.20;7.80;;;;;;;;;;110099;1277;22220;-82
2023/01/25 04:08:55;;;;;;;16.10;7.30;;;;;;;;;;110290;1276;22386;-82
2023/01/25 04:11:32;;;;;;;16.60;6.70;;;;;;;;;;110590;1257;22208;-81
2023/01/25 04:14:02;;;;;;;13.80;6.90;;;;;;;;;;110587;1275;22772;-81
2023/01/25 04:16:56;;;;;;;15.20;5.40;;;;;;;;;;110471;1275;22109;-82
2023/01/25 04:19:51;;;;;;;;;;;;;;;;;;;;;
2023/01/25 04:23:00;;;;;;;14.40;5.60;;;;;;;;;;110587;1275;22831;-81
2023/01/25 04:25:53;;;;;;;14.60;6.40;;;;;;;;;;110656;1275;22129;-81
2023/01/25 04:28:53;;;;;;;;;;;;;;;;;;;;;
2023/01/25 04:31:58;;;;;;;14.20;5.60;;;;;;;;;;110860;1258;22134;-81
2023/01/25 04:34:34;;;;;;;13.50;5.20;;;;;;;;;;110685;1275;22120;-82
2023/01/25 04:48:21;;;;;;;14.40;6.10;;;;;;;;;;109746;1288;22184;-82
2023/01/25 04:51:08;;;;;;;14.30;5.90;;;;;;;;;;109715;1269;22141;-82
2023/01/25 04:53:46;;;;;;;13.30;5.40;;;;;;;;;;109737;1288;22257;-82
2023/01/25 04:56:34;;;;;;;12.20;5.00;;;;;;;;;;109727;1288;22272;-82
2023/01/25 04:59:10;;;;;;;10.70;4.70;;;;;;;;;;109608;1288;22171;-82
2023/01/25 05:01:53;;;;;;;10.90;4.80;;;;;;;;;;109805;1269;22116;-82
2023/01/25 05:04:30;;;;;;;11.60;4.80;;;;;;;;;;109599;1288;22172;-82
2023/01/25 05:10:55;;;;;;;12.00;5.00;;;;;;;;;;109535;1272;22344;-82
2023/01/25 05:13:50;;;;;;;14.10;5.20;;;;;;;;;;109478;1289;22196;-82
2023/01/25 05:16:33;;;;;;;13.40;5.40;;;;;;;;;;109570;1285;22935;-82
2023/01/25 05:19:26;;;;;;;12.50;4.90;;;;;;;;;;109884;1285;22179;-82
2023/01/25 05:22:10;;;;;;;;;;;;;;;;;;;;;
2023/01/25 05:26:59;;;;;;;12.00;5.50;;;;;;;;;;109804;1286;22914;-82
2023/01/25 05:28:00;;;;;;;13.30;5.50;;;;;;;;;;109822;1286;22138;-82
2023/01/25 05:31:05;;;;;;;15.80;6.20;;;;;;;;;;109603;1267;22202;-83
2023/01/25 05:33:48;;;;;;;13.70;5.90;;;;;;;;;;109858;1286;22821;-82
2023/01/25 05:36:27;;;;;;;17.00;7.20;;;;;;;;;;109906;1286;22157;-82
2023/01/25 05:38:59;;;;;;;16.00;6.20;;;;;;;;;;109677;1286;22056;-82
2023/01/25 05:41:32;;;;;;;15.40;6.30;;;;;;;;;;109835;1267;22185;-82
2023/01/25 05:44:21;;;;;;;14.60;5.80;;;;;;;;;;109773;1285;22648;-81
2023/01/25 05:47:20;;;;;;;12.50;4.90;;;;;;;;;;110185;1276;22105;-81
2023/01/25 05:49:50;;;;;;;11.60;4.60;;;;;;;;;;110361;1276;22113;-82
2023/01/25 05:52:31;;;;;;;10.90;5.00;;;;;;;;;;110876;1253;22163;-82
2023/01/25 05:55:02;;;;;;;12.80;5.80;;;;;;;;;;110345;1276;22131;-83
2023/01/25 05:57:30;;;;;;;11.90;5.20;;;;;;;;;;110315;1276;22107;-82
2023/01/25 06:00:00;;;;;;;12.60;5.20;;;;;;;;;;110352;1276;22862;-82
2023/01/25 06:02:31;;;;;;;11.60;4.90;;;;;;;;;;110499;1260;22126;-82
2023/01/25 06:05:02;;;;;;;11.50;4.90;;;;;;;;;;110350;1276;22106;-86
2023/01/25 06:07:35;;;;;;;12.00;5.00;;;;;;;;;;110361;1276;22116;-82
2023/01/25 06:10:06;;;;;;;13.00;5.80;;;;;;;;;;110576;1276;22107;-83
2023/01/25 06:12:50;;;;;;;12.60;5.40;;;;;;;;;;110600;1259;22229;-83
2023/01/25 06:15:28;;;;;;;15.20;6.20;;;;;;;;;;110446;1276;22107;-82
2023/01/25 06:22:07;;;;;;;11.50;4.70;;;;;;;;;;109881;1262;22434;-84
2023/01/25 06:24:45;;;;;;;10.70;3.90;;;;;;;;;;109932;1284;22153;-83
2023/01/25 06:27:12;;;;;;;10.40;4.20;;;;;;;;;;109847;1284;22201;-82
2023/01/25 06:29:39;;;;;;;11.70;4.80;;;;;;;;;;109911;1284;22181;-84
2023/01/25 06:32:10;;;;;;;13.90;5.70;;;;;;;;;;109922;1262;22168;-84
2023/01/25 06:34:51;;;;;;;12.90;5.80;;;;;;;;;;109927;1284;22157;-83
2023/01/25 06:37:21;;;;;;;12.80;6.00;;;;;;;;;;109832;1284;23026;-83
2023/01/25 06:40:05;;;;;;;16.10;7.50;;;;;;;;;;109940;1284;22185;-83
2023/01/25 06:42:35;;;;;;;15.80;6.80;;;;;;;;;;109966;1266;22264;-83
2023/01/25 06:45:10;;;;;;;13.30;5.50;;;;;;;;;;109939;1284;22943;-84
2023/01/25 06:47:37;;;;;;;23.30;10.10;;;;;;;;;;109924;1284;22174;-83
2023/01/25 06:50:07;;;;;;;44.80;19.30;;;;;;;;;;109919;1284;22146;-84
2023/01/25 06:52:58;;;;;;;18.70;7.80;;;;;;;;;;110002;1265;22184;-84
2023/01/25 06:55:30;;;;;;;12.60;5.40;;;;;;;;;;109975;1283;22904;-84
2023/01/25 06:58:01;;;;;;;12.90;5.80;;;;;;;;;;110070;1279;22168;-84
2023/01/25 07:05:22;;;;;;;14.40;6.60;;;;;;;;;;110197;1264;22418;-84
2023/01/25 07:08:12;;;;;;;14.80;6.80;;;;;;;;;;110150;1279;22933;-85
2023/01/25 07:10:39;;;;;;;16.00;8.30;;;;;;;;;;110284;1268;22598;-85
2023/01/25 07:13:29;;;;;;;;;;;;;;;;;;;;;
2023/01/25 07:16:00;;;;;;;14.30;6.30;;;;;;;;;;110347;1278;22140;-85
2023/01/25 07:18:41;;;;;;;15.20;6.40;;;;;;;;;;110169;1278;22135;-83
2023/01/25 07:21:41;;;;;;;14.40;6.60;;;;;;;;;;110295;1278;22914;-84
2023/01/25 07:24:12;;;;;;;14.10;6.90;;;;;;;;;;110283;1262;22195;-83
2023/01/25 07:26:45;;;;;;;18.60;9.00;;;;;;;;;;110061;1280;22421;-83
2023/01/25 07:29:22;;;;;;;14.30;6.70;;;;;;;;;;110096;1280;22118;-83
2023/01/25 07:31:48;;;;;;;19.20;8.30;;;;;;;;;;110050;1280;22113;-83
2023/01/25 07:34:21;;;;;;;18.70;8.40;;;;;;;;;;110282;1262;22862;-82
2023/01/25 07:37:29;;;;;;;17.00;7.00;;;;;;;;;;110150;1280;22138;-83
2023/01/25 07:40:19;;;;;;;14.50;5.20;;;;;;;;;;110260;1280;23350;-83
2023/01/25 07:42:49;;;;;;;12.80;6.40;;;;;;;;;;110243;1280;22131;-83
2023/01/25 07:45:29;;;;;;;13.70;5.90;;;;;;;;;;110338;1262;22140;-83
2023/01/25 07:48:08;;;;;;;18.60;6.80;;;;;;;;;;110051;1280;22112;-83
2023/01/25 07:51:23;;;;;;;15.70;7.00;;;;;;;;;;110081;1281;22103;-83
2023/01/25 07:53:52;;;;;;;14.50;6.00;;;;;;;;;;110029;1280;22571;-84
2023/01/25 07:56:23;;;;;;;14.50;6.80;;;;;;;;;;110583;1262;22835;-83
2023/01/25 07:59:01;;;;;;;16.70;7.00;;;;;;;;;;110140;1280;22123;-83
2023/01/25 08:01:33;;;;;;;14.50;6.40;;;;;;;;;;110151;1280;22116;-83
2023/01/25 08:04:03;;;;;;;15.70;6.10;;;;;;;;;;110083;1280;22157;-83
2023/01/25 08:06:56;;;;;;;13.20;5.50;;;;;;;;;;110409;1261;22069;-83
2023/01/25 08:09:33;;;;;;;11.90;5.30;;;;;;;;;;110135;1280;22146;-83
2023/01/25 08:12:13;;;;;;;15.20;6.60;;;;;;;;;;110054;1280;22098;-83
2023/01/25 08:21:56;;;;;;;49.00;16.20;;;;;;;;;;109967;1284;22185;-84
2023/01/25 08:24:36;;;;;;;24.40;11.30;;;;;;;;;;109939;1284;22204;-84
2023/01/25 08:34:30;;;;;;;19.60;8.50;;;;;;;;;;109505;1292;22217;-84
2023/01/25 08:44:41;;;;;;;;;;;;;;;;;;;;;
2023/01/25 08:47:52;;;;;;;16.40;6.60;;;;;;;;;;108797;1283;22253;-83
2023/01/25 08:50:36;;;;;;;;;;;;;;;;;;;;;
2023/01/25 08:53:08;;;;;;;16.00;6.60;;;;;;;;;;109133;1294;22172;-85
2023/01/25 08:56:11;;;;;;;14.80;5.80;;;;;;;;;;109122;1271;23227;-83
2023/01/25 08:58:45;;;;;;;15.00;6.10;;;;;;;;;;109132;1294;22269;-83
2023/01/25 09:01:32;;;;;;;15.40;7.10;;;;;;;;;;109144;1294;22240;-84
2023/01/25 09:04:00;;;;;;;17.50;7.90;;;;;;;;;;109135;1294;22164;-83
2023/01/25 09:06:27;;;;;;;16.40;7.60;;;;;;;;;;109190;1275;22161;-83
2023/01/25 09:08:58;;;;;;;12.90;6.00;;;;;;;;;;109611;1289;22909;-83
2023/01/25 09:11:28;;;;;;;17.60;7.70;;;;;;;;;;109699;1288;22993;-83
2023/01/25 09:13:55;;;;;;;17.90;8.10;;;;;;;;;;109683;1288;22328;-84
2023/01/25 09:16:29;;;;;;;15.90;7.00;;;;;;;;;;109672;1268;22966;-83
2023/01/25 09:19:02;;;;;;;14.60;7.10;;;;;;;;;;110012;1282;22324;-83
2023/01/25 09:21:30;;;;;;;15.40;6.50;;;;;;;;;;110017;1272;22984;-83
2023/01/25 09:24:01;;;;;;;14.10;6.40;;;;;;;;;;109972;1282;22118;-83
2023/01/25 09:26:29;;;;;;;11.80;5.50;;;;;;;;;;110031;1261;22233;-84
2023/01/25 09:28:56;;;;;;;12.00;5.50;;;;;;;;;;110011;1282;22100;-83
2023/01/25 09:31:28;;;;;;;13.10;5.90;;;;;;;;;;110069;1281;22832;-84
2023/01/25 09:34:13;;;;;;;14.30;6.10;;;;;;;;;;109995;1281;22128;-83
2023/01/25 09:36:41;;;;;;;15.00;6.30;;;;;;;;;;110044;1261;22149;-83
2023/01/25 09:39:11;;;;;;;15.00;6.30;;;;;;;;;;109994;1282;22158;-83
2023/01/25 09:41:57;;;;;;;13.70;6.10;;;;;;;;;;110087;1281;22168;-82
2023/01/25 09:44:43;;;;;;;14.80;6.30;;;;;;;;;;109991;1281;22722;-83
2023/01/25 09:47:27;;;;;;;14.50;6.20;;;;;;;;;;110056;1263;22165;-84
2023/01/25 09:50:33;;;;;;;16.30;7.40;;;;;;;;;;110040;1282;22910;-83
2023/01/25 09:53:16;;;;;;;17.00;8.20;;;;;;;;;;110069;1279;22139;-83
2023/01/25 09:55:43;;;;;;;20.60;8.80;;;;;;;;;;110030;1282;22163;-82
2023/01/25 09:58:18;;;;;;;16.10;7.30;;;;;;;;;;110180;1270;22215;-83
2023/01/25 10:00:58;;;;;;;17.10;7.20;;;;;;;;;;110022;1281;22147;-83
2023/01/25 10:03:31;;;;;;;24.50;9.50;;;;;;;;;;109995;1281;22143;-84
2023/01/25 10:06:00;;;;;;;21.90;8.60;;;;;;;;;;110026;1281;22036;-84
2023/01/25 10:08:35;;;;;;;21.00;9.20;;;;;;;;;;110353;1263;22127;-83
2023/01/25 10:11:18;;;;;;;21.40;9.20;;;;;;;;;;110015;1282;22108;-84
2023/01/25 10:13:49;;;;;;;21.60;9.80;;;;;;;;;;110007;1282;22599;-83
2023/01/25 10:16:25;;;;;;;19.10;9.50;;;;;;;;;;110040;1282;21886;-83
2023/01/25 10:19:30;;;;;;;19.20;8.50;;;;;;;;;;110299;1263;22144;-82
2023/01/25 10:22:08;;;;;;;28.30;11.10;;;;;;;;;;109985;1282;22142;-82
2023/01/25 10:25:03;;;;;;;17.70;7.80;;;;;;;;;;110052;1282;22129;-83
2023/01/25 10:27:55;;;;;;;16.70;7.30;;;;;;;;;;110059;1261;22189;-82
2023/01/25 10:30:35;;;;;;;15.00;7.10;;;;;;;;;;110027;1282;22159;-83
2023/01/25 10:33:26;;;;;;;16.20;7.00;;;;;;;;;;109978;1282;22156;-82
2023/01/25 10:35:58;;;;;;;14.40;6.30;;;;;;;;;;110035;1282;22973;-82
2023/01/25 10:38:43;;;;;;;15.70;7.20;;;;;;;;;;110041;1267;22167;-83
2023/01/25 10:41:46;;;;;;;15.80;6.80;;;;;;;;;;110023;1282;22133;-83
2023/01/25 10:44:23;;;;;;;16.50;7.20;;;;;;;;;;109757;1287;23059;-82
2023/01/25 10:47:11;;;;;;;18.50;8.20;;;;;;;;;;109745;1287;22155;-82
2023/01/25 10:49:56;;;;;;;19.30;8.80;;;;;;;;;;109831;1274;22179;-82
2023/01/25 10:52:27;;;;;;;18.70;9.10;;;;;;;;;;109649;1288;22164;-83
2023/01/25 10:55:06;;;;;;;24.80;11.10;;;;;;;;;;109662;1288;22132;-83
2023/01/25 10:57:35;;;;;;;34.10;15.30;;;;;;;;;;109569;1288;22869;-83
2023/01/25 11:00:09;;;;;;;17.60;8.70;;;;;;;;;;109874;1269;22162;-82
2023/01/25 11:02:40;;;;;;;57.20;18.60;;;;;;;;;;109639;1287;22170;-82
2023/01/25 11:05:39;;;;;;;81.50;24.60;;;;;;;;;;109767;1286;22170;-82
2023/01/25 11:08:47;;;;;;;72.80;23.10;;;;;;;;;;109777;1280;22263;-83
2023/01/25 11:11:47;;;;;;;46.00;15.30;;;;;;;;;;109789;1284;22901;-83
2023/01/25 11:14:16;;;;;;;22.20;10.30;;;;;;;;;;109772;1286;22175;-82
2023/01/25 11:16:48;;;;;;;66.40;18.30;;;;;;;;;;109776;1286;22897;-83
2023/01/25 11:19:37;;;;;;;48.70;15.00;;;;;;;;;;109930;1259;22166;-83
2023/01/25 11:29:33;;;;;;;17.90;8.70;;;;;;;;;;104487;1295;544832;-83
2023/01/25 11:32:22;;;;;;;18.20;8.60;;;;;;;;;;106058;1287;22556;-86
2023/01/25 11:35:55;;;;;;;18.70;8.90;;;;;;;;;;106198;1287;22616;-84
2023/01/25 11:38:52;;;;;;;17.60;8.40;;;;;;;;;;105758;1272;22572;-83
2023/01/25 11:45:36;;;;;;;;;;;;;;;;;;;;;
2023/01/25 11:49:35;;;;;;;17.50;8.30;;;;;;;;;;105557;1277;23343;-87
2023/01/25 11:53:01;;;;;;;19.20;8.50;;;;;;;;;;105491;1298;23941;-85
2023/01/25 11:55:59;;;;;;;;;;;;;;;;;;;;;
2023/01/25 11:59:33;;;;;;;20.70;9.70;;;;;;;;;;105184;1292;22565;-89
2023/01/25 12:02:58;;;;;;;21.00;9.80;;;;;;;;;;105188;1302;22881;-86
2023/01/25 12:05:53;;;;;;;19.80;9.60;;;;;;;;;;105041;1300;25236;-85
2023/01/25 12:08:43;;;;;;;22.60;10.30;;;;;;;;;;105029;1296;24224;-83
2023/01/25 12:11:42;;;;;;;20.10;9.20;;;;;;;;;;105020;1283;23939;-84
2023/01/25 12:14:21;;;;;;;18.80;8.40;;;;;;;;;;104926;1296;22516;-89
2023/01/25 12:17:26;;;;;;;17.60;8.00;;;;;;;;;;105865;1288;23692;-84
2023/01/25 12:20:26;;;;;;;18.40;8.90;;;;;;;;;;105714;1291;23293;-82
2023/01/25 12:23:33;;;;;;;22.10;10.40;;;;;;;;;;105911;1285;24412;-82
2023/01/25 12:26:44;;;;;;;35.30;16.50;;;;;;;;;;105903;1288;22548;-82
2023/01/25 12:30:30;;;;;;;31.00;13.60;;;;;;;;;;105991;1289;24457;-86
2023/01/25 12:33:32;;;;;;;70.10;19.30;;;;;;;;;;106457;1267;22589;-86
2023/01/25 12:36:13;;;;;;;30.90;11.90;;;;;;;;;;106850;1277;25806;-81
2023/01/25 12:38:56;;;;;;;21.80;10.60;;;;;;;;;;106817;1275;22548;-82
2023/01/25 12:41:47;;;;;;;22.70;10.40;;;;;;;;;;106999;1276;24202;-83
2023/01/25 12:44:40;;;;;;;21.20;9.50;;;;;;;;;;107017;1270;24779;-81
2023/01/25 12:47:31;;;;;;;;;;;;;;;;;;;;;
2023/01/25 12:51:25;;;;;;;21.10;9.90;;;;;;;;;;107107;1273;22540;-84
2023/01/25 12:54:28;;;;;;;21.40;9.00;;;;;;;;;;106533;1275;24341;-86
2023/01/25 12:57:46;;;;;;;27.60;9.80;;;;;;;;;;106528;1280;25334;-82
2023/01/25 13:00:44;;;;;;;21.10;11.30;;;;;;;;;;106175;1287;25297;-83
2023/01/25 13:03:55;;;;;;;33.70;13.90;;;;;;;;;;105671;1282;22685;-83
2023/01/25 13:07:06;;;;;;;29.90;15.10;;;;;;;;;;105814;1293;23047;-86
2023/01/25 13:09:54;;;;;;;24.90;10.50;;;;;;;;;;105739;1289;23925;-82
2023/01/25 13:13:01;;;;;;;20.80;8.80;;;;;;;;;;105819;1276;24054;-82
2023/01/25 13:16:28;;;;;;;;;;;;;;;;;;;;;
2023/01/25 13:19:24;;;;;;;30.30;12.60;;;;;;;;;;105057;1296;22884;-86
2023/01/25 13:22:58;;;;;;;21.20;9.40;;;;;;;;;;104989;1301;23751;-82
2023/01/25 13:25:21;;;;;;;19.50;8.60;;;;;;;;;;105210;1286;22692;-82
2023/01/25 13:28:58;;;;;;;20.70;9.10;;;;;;;;;;105559;1292;22518;-82
2023/01/25 13:31:40;;;;;;;22.10;9.50;;;;;;;;;;104957;1296;24025;-82
2023/01/25 13:38:26;;;;;;;19.00;9.00;;;;;;;;;;105756;1296;22581;-82
2023/01/25 13:41:36;;;;;;;20.10;9.40;;;;;;;;;;106319;1285;23071;-82
2023/01/25 13:44:44;;;;;;;;;;;;;;;;;;;;;
2023/01/25 13:47:42;;;;;;;;;;;;;;;;;;;;;
2023/01/25 13:50:25;;;;;;;18.60;8.50;;;;;;;;;;106246;1284;22574;-82
2023/01/25 13:53:38;;;;;;;24.30;10.90;;;;;;;;;;106308;1283;25297;-82
2023/01/25 13:56:49;;;;;;;26.00;11.90;;;;;;;;;;106331;1276;25325;-83
2023/01/25 13:59:47;;;;;;;31.10;14.10;;;;;;;;;;106737;1275;22541;-81
2023/01/25 14:03:23;;;;;;;42.40;17.60;;;;;;;;;;106623;1280;22638;-82
2023/01/25 14:06:05;;;;;;;;;;;;;;;;;;;;;
2023/01/25 14:09:18;;;;;;;20.70;9.50;;;;;;;;;;106428;1277;24207;-84
2023/01/25 14:12:19;;;;;;;20.40;8.60;;;;;;;;;;106515;1283;24334;-87
2023/01/25 14:19:28;;;;;;;25.40;11.50;;;;;;;;;;106745;1276;21757;-86
2023/01/25 14:21:58;;;;;;;29.90;12.70;;;;;;;;;;106458;1281;24395;-85
2023/01/25 14:25:03;;;;;;;25.50;10.70;;;;;;;;;;106461;1266;26815;-83
2023/01/25 14:28:29;;;;;;;;;;;;;;;;;;;;;
2023/01/25 14:32:03;;;;;;;23.90;10.20;;;;;;;;;;106185;1286;24100;-86
2023/01/25 14:34:41;;;;;;;57.00;27.30;;;;;;;;;;106147;1283;23016;-84
2023/01/25 14:37:23;;;;;;;67.10;27.90;;;;;;;;;;106624;1269;24203;-83
2023/01/25 14:40:29;;;;;;;36.10;15.60;;;;;;;;;;106140;1288;24211;-82
2023/01/25 14:43:11;;;;;;;25.80;10.60;;;;;;;;;;106424;1276;24243;-83
2023/01/25 14:46:29;;;;;;;;;;;;;;;;;;;;;
2023/01/25 14:49:28;;;;;;;31.10;13.30;;;;;;;;;;106519;1280;22529;-82
2023/01/25 14:52:51;;;;;;;;;;;;;;;;;;;;;
2023/01/25 14:56:05;;;;;;;30.60;12.70;;;;;;;;;;105914;1271;22584;-82
2023/01/25 14:59:06;;;;;;;27.40;11.60;;;;;;;;;;106090;1289;23596;-82
2023/01/25 15:02:20;;;;;;;30.50;12.00;;;;;;;;;;105944;1290;25260;-85
2023/01/25 15:05:58;;;;;;;28.20;11.60;;;;;;;;;;105564;1293;25324;-83
2023/01/25 15:08:46;;;;;;;34.60;15.10;;;;;;;;;;105558;1280;24269;-82
2023/01/25 15:11:47;;;;;;;32.90;14.30;;;;;;;;;;105670;1294;22567;-83
2023/01/25 15:15:14;;;;;;;30.40;15.40;;;;;;;;;;105778;1294;24252;-82
2023/01/25 15:17:49;;;;;;;34.10;14.30;;;;;;;;;;105703;1287;25052;-82
2023/01/25 15:21:18;;;;;;;30.80;13.30;;;;;;;;;;105632;1293;24054;-82
2023/01/25 15:24:05;;;;;;;33.50;13.00;;;;;;;;;;105698;1293;22580;-82
2023/01/25 15:27:04;;;;;;;;;;;;;;;;;;;;;
2023/01/25 15:29:39;;;;;;;29.60;11.50;;;;;;;;;;106026;1267;22536;-84
2023/01/25 15:32:29;;;;;;;28.20;11.80;;;;;;;;;;106392;1281;22553;-81
2023/01/25 15:35:42;;;;;;;42.00;17.40;;;;;;;;;;106472;1281;25568;-82
2023/01/25 15:39:08;;;;;;;39.50;17.00;;;;;;;;;;106658;1281;22539;-83
2023/01/25 15:41:42;;;;;;;40.00;16.20;;;;;;;;;;106731;1275;22733;-81
2023/01/25 15:44:56;;;;;;;36.00;15.40;;;;;;;;;;106927;1275;24202;-85
2023/01/25 15:47:38;;;;;;;;;;;;;;;;;;;;;
2023/01/25 15:50:42;;;;;;;67.10;26.90;;;;;;;;;;106956;1273;22510;-82
2023/01/25 15:53:38;;;;;;;41.70;18.30;;;;;;;;;;107115;1275;25390;-83
2023/01/25 16:00:32;;;;;;;37.60;16.40;;;;;;;;;;106453;1263;23011;-83
2023/01/25 16:02:52;;;;;;;34.20;14.10;;;;;;;;;;106628;1280;22555;-82
2023/01/25 16:06:12;;;;;;;24.00;11.30;;;;;;;;;;106448;1281;22972;-82
2023/01/25 16:08:57;;;;;;;48.00;20.40;;;;;;;;;;106277;1276;22546;-83
2023/01/25 16:11:50;;;;;;;;;;;;;;;;;;;;;
2023/01/25 16:14:28;;;;;;;32.20;13.50;;;;;;;;;;106386;1286;22556;-82
2023/01/25 16:17:22;;;;;;;28.80;11.70;;;;;;;;;;106232;1286;22622;-83
2023/01/25 16:20:02;;;;;;;34.90;13.50;;;;;;;;;;106223;1270;24207;-82
2023/01/25 16:23:10;;;;;;;37.00;14.30;;;;;;;;;;106342;1286;22549;-85
2023/01/25 16:25:44;;;;;;;31.20;13.50;;;;;;;;;;106304;1286;24213;-82
2023/01/25 16:28:52;;;;;;;31.80;12.90;;;;;;;;;;106233;1264;22627;-82
2023/01/25 16:31:50;;;;;;;35.10;14.10;;;;;;;;;;106228;1281;24713;-83
2023/01/25 16:34:31;;;;;;;40.60;16.00;;;;;;;;;;106189;1285;24261;-82
2023/01/25 16:37:24;;;;;;;40.10;15.50;;;;;;;;;;106338;1282;23917;-82
2023/01/25 16:40:17;;;;;;;39.40;15.60;;;;;;;;;;106531;1261;22562;-82
2023/01/25 16:43:34;;;;;;;;;;;;;;;;;;;;;
2023/01/25 16:46:41;;;;;;;;;;;;;;;;;;;;;
2023/01/25 16:49:39;;;;;;;;;;;;;;;;;;;;;
2023/01/25 16:52:55;;;;;;;34.80;15.10;;;;;;;;;;107355;1267;22773;-83
2023/01/25 16:55:28;;;;;;;32.00;13.70;;;;;;;;;;107080;1275;22549;-82
2023/01/25 16:58:31;;;;;;;33.40;14.70;;;;;;;;;;107231;1267;22557;-82
2023/01/25 17:01:16;;;;;;;32.70;13.50;;;;;;;;;;106996;1257;24239;-83
2023/01/25 17:04:43;;;;;;;;;;;;;;;;;;;;;
2023/01/25 17:07:34;;;;;;;36.70;15.90;;;;;;;;;;107342;1267;22534;-83
2023/01/25 17:10:24;;;;;;;38.80;16.20;;;;;;;;;;107367;1272;24250;-81
2023/01/25 17:13:01;;;;;;;38.50;16.00;;;;;;;;;;107337;1267;22772;-83
2023/01/25 17:16:01;;;;;;;44.10;18.00;;;;;;;;;;107192;1267;25328;-82
2023/01/25 17:18:58;;;;;;;33.20;14.60;;;;;;;;;;107384;1272;22502;-85
2023/01/25 17:21:52;;;;;;;;;;;;;;;;;;;;;
2023/01/25 17:28:32;;;;;;;32.20;12.80;;;;;;;;;;106886;1278;22573;-82
2023/01/25 17:31:50;;;;;;;31.80;13.70;;;;;;;;;;106800;1262;24277;-81
2023/01/25 17:34:42;;;;;;;;;;;;;;;;;;;;;
2023/01/25 17:37:17;;;;;;;32.30;13.50;;;;;;;;;;106777;1279;22787;-81
2023/01/25 17:40:44;;;;;;;;;;;;;;;;;;;;;
2023/01/25 17:43:31;;;;;;;44.00;18.20;;;;;;;;;;106949;1273;22541;-82
2023/01/25 17:47:06;;;;;;;40.50;17.30;;;;;;;;;;106803;1274;24436;-84
2023/01/25 17:49:36;;;;;;;;;;;;;;;;;;;;;
2023/01/25 17:52:17;;;;;;;39.00;15.00;;;;;;;;;;106741;1264;25243;-84
2023/01/25 17:58:48;;;;;;;57.80;23.60;;;;;;;;;;106771;1273;25373;-81
2023/01/25 18:02:23;;;;;;;52.70;23.10;;;;;;;;;;106533;1282;25455;-82
2023/01/25 18:04:50;;;;;;;53.40;23.30;;;;;;;;;;106827;1267;22786;-83
2023/01/25 18:08:25;;;;;;;40.40;18.10;;;;;;;;;;107081;1268;23427;-82
2023/01/25 18:11:53;;;;;;;38.40;16.20;;;;;;;;;;106859;1262;22543;-85
2023/01/25 18:15:21;;;;;;;35.00;14.20;;;;;;;;;;106361;1280;22539;-84
2023/01/25 18:18:13;;;;;;;36.60;15.70;;;;;;;;;;105909;1287;24289;-87
2023/01/25 18:21:08;;;;;;;38.00;15.00;;;;;;;;;;106114;1263;23179;-83
2023/01/25 18:24:32;;;;;;;40.00;16.00;;;;;;;;;;106403;1280;22561;-82
2023/01/25 18:26:45;;;;;;;41.10;16.90;;;;;;;;;;106200;1283;22548;-82
2023/01/25 18:30:01;;;;;;;43.50;17.40;;;;;;;;;;106358;1280;22612;-81
2023/01/25 18:32:52;;;;;;;32.70;15.10;;;;;;;;;;106310;1270;22569;-82
2023/01/25 18:35:29;;;;;;;42.40;17.40;;;;;;;;;;106146;1285;22556;-84
2023/01/25 18:38:32;;;;;;;42.60;16.70;;;;;;;;;;106151;1280;22669;-81
2023/01/25 18:41:41;;;;;;;44.90;18.70;;;;;;;;;;106478;1264;23406;-85
2023/01/25 18:44:29;;;;;;;;;;;;;;;;;;;;;
2023/01/25 18:47:23;;;;;;;50.90;20.50;;;;;;;;;;106575;1275;25425;-83
2023/01/25 18:49:55;;;;;;;45.90;19.40;;;;;;;;;;106666;1275;22775;-82
2023/01/25 18:52:42;;;;;;;47.70;19.00;;;;;;;;;;107177;1260;24347;-82
2023/01/25 18:55:10;;;;;;;45.50;19.60;;;;;;;;;;107235;1269;22544;-81
2023/01/25 18:58:37;;;;;;;46.60;19.90;;;;;;;;;;107137;1267;22537;-85
2023/01/25 19:01:04;;;;;;;51.40;20.40;;;;;;;;;;107166;1267;25309;-81
2023/01/25 19:04:01;;;;;;;50.10;21.00;;;;;;;;;;106897;1267;25438;-81
2023/01/25 19:06:57;;;;;;;;;;;;;;;;;;;;;
2023/01/25 19:09:59;;;;;;;49.60;20.00;;;;;;;;;;106848;1275;25556;-81
2023/01/25 19:13:18;;;;;;;45.80;18.90;;;;;;;;;;106529;1259;22809;-86
2023/01/25 19:16:54;;;;;;;42.20;17.00;;;;;;;;;;106612;1281;24667;-84
2023/01/25 19:19:34;;;;;;;42.40;16.10;;;;;;;;;;106311;1264;24359;-86
2023/01/25 19:22:24;;;;;;;;;;;;;;;;;;;;;
2023/01/25 19:25:52;;;;;;;39.20;16.20;;;;;;;;;;106512;1284;22659;-82
2023/01/25 19:29:06;;;;;;;40.40;16.10;;;;;;;;;;106151;1288;25264;-82
2023/01/25 19:31:27;;;;;;;40.40;16.60;;;;;;;;;;106172;1287;22564;-82
2023/01/25 19:35:13;;;;;;;41.00;17.80;;;;;;;;;;106285;1270;24196;-82
2023/01/25 19:38:30;;;;;;;42.60;17.30;;;;;;;;;;106361;1287;24433;-85
2023/01/25 19:42:00;;;;;;;44.00;15.80;;;;;;;;;;106236;1287;22703;-83
2023/01/25 19:45:01;;;;;;;;;;;;;;;;;;;;;